Time;durP1;ratioP1;P1;durP2;ratioP2;P2;SDS_P1;SDS_P2;PMS_P1;PMS_P2;Temp;Humidity;BMP_temperature;BMP_pressure;BME280_temperature;BME280_humidity;BME280_pressure;Samples;Min_cycle;Max_cycle;Signal;HPM_P1;HPM_P2
2022/02/26 00:00:55;;;;;;;10.30;5.00;;;2.70;24.70;;;;;;7360594;19;20748;-60
2022/02/26 00:03:25;;;;;;;9.73;4.43;;;2.80;24.70;;;;;;7383585;19;20013;-59
2022/02/26 00:05:56;;;;;;;11.13;4.45;;;2.80;24.50;;;;;;7357943;19;20060;-60
2022/02/26 00:08:25;;;;;;;10.77;4.82;;;2.90;24.50;;;;;;7362014;19;20010;-59
2022/02/26 00:29:37;;;;;;;11.00;4.90;;;2.90;23.50;;;;;;7361417;19;21004;-60
2022/02/26 00:32:25;;;;;;;10.80;4.80;;;3.00;22.70;;;;;;7358866;19;20031;-60
2022/02/26 00:35:14;;;;;;;11.75;5.05;;;2.90;23.20;;;;;;7357072;19;20091;-60
2022/02/26 00:37:44;;;;;;;10.30;4.90;;;2.90;23.80;;;;;;7361148;19;20470;-60
2022/02/26 00:40:14;;;;;;;7.78;4.40;;;2.90;23.30;;;;;;7364864;19;20019;-60
2022/02/26 00:42:44;;;;;;;10.07;4.53;;;2.90;23.60;;;;;;7363614;19;20016;-58
2022/02/26 00:45:17;;;;;;;12.70;4.40;;;2.90;22.80;;;;;;7384417;19;20010;-59
2022/02/26 00:47:49;;;;;;;13.07;4.25;;;2.90;23.30;;;;;;7366918;19;20011;-60
2022/02/26 00:50:17;;;;;;;11.70;4.47;;;2.80;23.10;;;;;;7368650;19;20050;-59
2022/02/26 00:52:47;;;;;;;13.57;4.43;;;2.80;23.50;;;;;;7366511;19;20017;-60
2022/02/26 00:55:17;;;;;;;10.32;4.25;;;2.90;23.30;;;;;;7364418;19;20021;-58
2022/02/26 00:57:47;;;;;;;9.35;4.63;;;2.80;23.70;;;;;;7367938;19;20093;-60
2022/02/26 01:00:20;;;;;;;12.57;4.65;;;2.90;23.60;;;;;;7390102;19;20370;-60
2022/02/26 01:02:50;;;;;;;9.68;4.82;;;2.90;23.10;;;;;;7365701;19;20098;-61
2022/02/26 01:05:20;;;;;;;9.27;4.70;;;2.90;22.60;;;;;;7365390;19;20014;-60
2022/02/26 01:07:50;;;;;;;9.45;4.68;;;2.90;22.80;;;;;;7368115;19;20043;-59
2022/02/26 01:10:19;;;;;;;7.70;4.72;;;3.00;22.40;;;;;;7368759;19;20011;-60
2022/02/26 01:12:49;;;;;;;10.50;4.82;;;2.90;21.70;;;;;;7364930;19;20618;-60
2022/02/26 01:15:22;;;;;;;11.32;4.85;;;3.00;22.20;;;;;;7384803;19;20010;-59
2022/02/26 01:17:52;;;;;;;13.65;4.75;;;2.90;21.70;;;;;;7365883;19;20082;-61
2022/02/26 01:20:21;;;;;;;7.82;4.57;;;2.90;22.30;;;;;;7367029;19;20481;-59
2022/02/26 01:22:51;;;;;;;11.63;4.97;;;2.90;22.60;;;;;;7363969;19;20014;-60
2022/02/26 01:25:21;;;;;;;8.30;4.63;;;2.90;22.20;;;;;;7365647;19;20265;-60
2022/02/26 01:27:51;;;;;;;10.20;4.78;;;2.90;21.70;;;;;;7368177;19;20077;-61
2022/02/26 01:30:25;;;;;;;13.30;5.10;;;2.90;21.70;;;;;;7388563;19;20010;-60
2022/02/26 01:32:55;;;;;;;12.35;4.38;;;2.90;21.80;;;;;;7363843;19;20027;-59
2022/02/26 01:35:25;;;;;;;9.20;3.90;;;2.80;22.20;;;;;;7362485;19;20013;-59
2022/02/26 01:37:55;;;;;;;7.25;4.70;;;2.80;22.40;;;;;;7368381;19;20078;-60
2022/02/26 01:40:25;;;;;;;8.25;4.70;;;2.80;22.50;;;;;;7366840;19;20073;-60
2022/02/26 01:42:55;;;;;;;8.25;4.85;;;2.70;22.60;;;;;;7364930;19;20011;-60
2022/02/26 01:45:28;;;;;;;6.55;4.00;;;2.70;22.80;;;;;;7384372;19;20094;-61
2022/02/26 02:03:21;;;;;;;12.45;5.05;;;2.70;21.60;;;;;;7364983;19;20030;-60
2022/02/26 02:05:52;;;;;;;10.05;4.72;;;2.60;21.70;;;;;;7360261;19;20010;-61
2022/02/26 02:08:22;;;;;;;10.73;4.50;;;2.60;22.40;;;;;;7365518;19;20010;-59
2022/02/26 02:10:53;;;;;;;11.82;5.43;;;2.60;22.70;;;;;;7363882;19;20106;-59
2022/02/26 02:13:24;;;;;;;11.05;4.40;;;2.60;22.00;;;;;;7367627;19;20142;-59
2022/02/26 02:15:56;;;;;;;8.65;4.47;;;2.60;22.50;;;;;;7360906;19;20440;-59
2022/02/26 02:18:29;;;;;;;8.52;4.50;;;2.60;21.90;;;;;;7386135;19;20014;-60
2022/02/26 02:20:59;;;;;;;12.60;4.32;;;2.60;22.70;;;;;;7363035;19;20101;-60
2022/02/26 02:23:31;;;;;;;11.55;4.97;;;2.60;22.60;;;;;;7367732;19;20021;-61
2022/02/26 02:26:03;;;;;;;11.68;4.65;;;2.50;22.60;;;;;;7362050;19;20016;-60
2022/02/26 02:28:35;;;;;;;8.93;4.53;;;2.50;23.20;;;;;;7364686;19;20134;-60
2022/02/26 02:31:05;;;;;;;8.10;4.65;;;2.40;23.40;;;;;;7362324;19;20073;-61
2022/02/26 02:33:41;;;;;;;15.38;4.97;;;2.40;23.60;;;;;;7376980;19;20525;-60
2022/02/26 02:36:11;;;;;;;11.68;5.47;;;2.30;23.90;;;;;;7383845;19;20391;-61
2022/02/26 02:38:44;;;;;;;11.57;4.78;;;2.30;23.90;;;;;;7364196;19;20017;-61
2022/02/26 02:41:14;;;;;;;8.70;3.83;;;2.30;24.20;;;;;;7360809;19;20129;-60
2022/02/26 02:43:44;;;;;;;13.07;4.75;;;2.30;24.50;;;;;;7364777;19;20014;-60
2022/02/26 02:46:14;;;;;;;11.70;4.72;;;2.30;24.70;;;;;;7362567;19;20016;-59
2022/02/26 02:48:44;;;;;;;8.75;4.93;;;2.30;24.70;;;;;;7364138;19;20057;-59
2022/02/26 02:51:14;;;;;;;8.93;4.25;;;2.30;24.70;;;;;;7381975;19;20025;-59
2022/02/26 02:53:47;;;;;;;12.15;5.00;;;2.30;24.70;;;;;;7364942;19;20015;-60
2022/02/26 02:56:16;;;;;;;11.82;5.82;;;2.30;24.70;;;;;;7360489;19;20010;-59
2022/02/26 02:58:46;;;;;;;12.68;5.75;;;2.40;24.80;;;;;;7364845;19;20053;-59
2022/02/26 03:01:16;;;;;;;13.45;4.93;;;2.30;24.70;;;;;;7360715;19;20013;-59
2022/02/26 03:03:47;;;;;;;10.13;5.13;;;2.30;24.70;;;;;;7362541;19;20414;-60
2022/02/26 03:06:29;;;;;;;9.15;5.53;;;2.30;24.70;;;;;;7381091;19;21051;-59
2022/02/26 03:09:02;;;;;;;15.13;6.07;;;2.30;25.30;;;;;;7365067;19;20013;-60
2022/02/26 03:11:32;;;;;;;15.13;5.78;;;2.30;24.70;;;;;;7360767;19;20392;-60
2022/02/26 03:14:02;;;;;;;14.80;5.88;;;2.30;24.90;;;;;;7363474;19;20553;-59
2022/02/26 03:16:38;;;;;;;11.77;5.85;;;2.30;25.20;;;;;;7360310;19;20003;-61
2022/02/26 03:19:09;;;;;;;11.88;5.95;;;2.30;24.80;;;;;;7364331;19;20050;-60
2022/02/26 03:21:39;;;;;;;13.88;5.70;;;2.30;24.80;;;;;;7382943;19;20086;-60
2022/02/26 03:24:12;;;;;;;11.70;6.63;;;2.20;24.70;;;;;;7359118;19;20038;-59
2022/02/26 03:26:42;;;;;;;16.05;6.63;;;2.20;25.20;;;;;;7358883;19;20011;-60
2022/02/26 03:29:12;;;;;;;12.68;6.18;;;2.20;25.40;;;;;;7362687;19;20010;-59
2022/02/26 03:31:43;;;;;;;13.57;6.15;;;2.30;25.20;;;;;;7360459;19;20011;-61
2022/02/26 03:34:14;;;;;;;16.23;6.20;;;2.20;25.00;;;;;;7365011;19;20015;-61
2022/02/26 03:36:44;;;;;;;15.43;6.07;;;2.20;25.60;;;;;;7358483;19;20010;-60
2022/02/26 03:39:17;;;;;;;14.88;6.28;;;2.10;25.80;;;;;;7385576;19;20021;-61
2022/02/26 03:41:47;;;;;;;15.35;7.03;;;2.10;25.90;;;;;;7358546;19;20382;-61
2022/02/26 03:44:17;;;;;;;16.25;6.40;;;2.10;26.20;;;;;;7365037;19;20044;-60
2022/02/26 03:46:48;;;;;;;12.80;6.68;;;2.10;26.20;;;;;;7359546;19;20067;-60
2022/02/26 03:49:18;;;;;;;13.30;6.72;;;2.20;26.30;;;;;;7362775;19;20007;-60
2022/02/26 03:51:49;;;;;;;13.20;7.05;;;2.20;25.70;;;;;;7358875;19;20011;-61
2022/02/26 03:54:22;;;;;;;12.93;6.25;;;2.20;25.40;;;;;;7386126;19;20018;-61
2022/02/26 03:56:55;;;;;;;15.93;7.13;;;2.10;26.10;;;;;;7359486;19;20025;-60
2022/02/26 03:59:25;;;;;;;15.65;7.53;;;2.20;26.10;;;;;;7361477;19;20484;-60
2022/02/26 04:01:55;;;;;;;13.35;6.88;;;2.10;25.80;;;;;;7357265;19;20011;-60
2022/02/26 04:04:28;;;;;;;18.30;7.47;;;2.10;26.10;;;;;;7364030;19;20039;-60
2022/02/26 04:06:59;;;;;;;15.52;6.85;;;2.10;26.20;;;;;;7359385;19;20010;-59
2022/02/26 04:09:31;;;;;;;14.88;7.53;;;2.10;25.80;;;;;;7384950;19;20010;-60
2022/02/26 04:12:01;;;;;;;17.27;7.70;;;2.10;26.00;;;;;;7360444;19;20010;-60
2022/02/26 04:14:34;;;;;;;13.85;7.10;;;2.10;26.20;;;;;;7360696;19;20368;-58
2022/02/26 04:17:04;;;;;;;16.40;7.25;;;2.10;26.50;;;;;;7357846;19;20015;-59
2022/02/26 04:19:34;;;;;;;13.70;7.38;;;2.20;26.60;;;;;;7361259;19;20014;-59
2022/02/26 04:22:08;;;;;;;17.50;7.03;;;2.20;25.60;;;;;;7358613;19;20035;-59
2022/02/26 04:24:43;;;;;;;23.27;8.48;;;2.10;25.60;;;;;;7362076;19;20010;-60
2022/02/26 04:27:14;;;;;;;21.45;8.25;;;2.10;26.10;;;;;;7381853;19;20017;-60
2022/02/26 04:29:44;;;;;;;14.75;7.30;;;2.10;26.20;;;;;;7361018;19;20024;-59
2022/02/26 04:32:34;;;;;;;18.95;7.55;;;2.10;26.30;;;;;;7358272;19;20200;-59
2022/02/26 04:35:04;;;;;;;18.70;7.18;;;2.00;26.20;;;;;;7360379;19;20099;-60
2022/02/26 04:37:34;;;;;;;16.80;6.97;;;2.10;26.90;;;;;;7362540;19;20027;-60
2022/02/26 04:40:09;;;;;;;19.63;7.35;;;2.00;26.80;;;;;;7360957;19;20082;-60
2022/02/26 04:42:40;;;;;;;16.63;7.03;;;2.10;27.00;;;;;;7357183;19;20022;-60
2022/02/26 04:45:11;;;;;;;12.98;7.15;;;2.00;26.50;;;;;;7380682;19;20010;-58
2022/02/26 04:47:43;;;;;;;16.98;8.38;;;2.00;27.10;;;;;;7362490;19;20363;-59
2022/02/26 04:50:14;;;;;;;16.65;7.63;;;2.00;27.00;;;;;;7361323;19;20482;-60
2022/02/26 04:52:45;;;;;;;15.77;7.57;;;2.10;27.00;;;;;;7358690;19;20461;-59
2022/02/26 04:55:17;;;;;;;17.50;8.40;;;2.10;27.00;;;;;;7358565;19;20019;-59
2022/02/26 04:57:47;;;;;;;19.02;8.68;;;2.10;26.30;;;;;;7360404;19;20018;-60
2022/02/26 05:00:18;;;;;;;15.60;8.65;;;2.00;26.90;;;;;;7382112;19;20017;-60
2022/02/26 05:02:48;;;;;;;16.92;7.75;;;2.00;27.50;;;;;;7357200;19;20085;-59
2022/02/26 05:05:18;;;;;;;17.85;8.00;;;2.00;27.80;;;;;;7355653;19;20010;-59
2022/02/26 05:07:48;;;;;;;20.05;8.93;;;2.00;27.80;;;;;;7362794;19;20081;-60
2022/02/26 05:10:20;;;;;;;17.55;8.98;;;2.00;27.70;;;;;;7361108;19;20078;-60
2022/02/26 05:12:50;;;;;;;17.20;8.18;;;2.10;27.40;;;;;;7355286;19;20364;-59
2022/02/26 05:15:20;;;;;;;19.45;7.88;;;2.00;27.40;;;;;;7377239;19;20478;-59
2022/02/26 05:17:50;;;;;;;13.15;7.72;;;1.90;27.40;;;;;;7360205;19;20014;-60
2022/02/26 05:20:20;;;;;;;14.00;7.90;;;2.00;27.80;;;;;;7362292;19;20006;-59
2022/02/26 05:22:50;;;;;;;17.33;8.57;;;1.90;27.70;;;;;;7357709;19;20478;-59
2022/02/26 05:25:22;;;;;;;18.58;8.30;;;2.00;27.50;;;;;;7356622;19;20446;-61
2022/02/26 05:27:52;;;;;;;19.02;8.63;;;1.90;27.60;;;;;;7366514;19;20027;-60
2022/02/26 05:30:22;;;;;;;17.00;7.95;;;1.90;27.80;;;;;;7391241;19;20108;-59
2022/02/26 05:32:52;;;;;;;18.05;8.38;;;1.90;27.80;;;;;;7364770;19;20458;-60
2022/02/26 05:35:22;;;;;;;18.45;8.88;;;1.90;27.80;;;;;;7362589;19;20010;-59
2022/02/26 05:37:52;;;;;;;21.33;8.65;;;1.90;28.10;;;;;;7366956;19;20523;-60
2022/02/26 05:40:24;;;;;;;20.02;9.10;;;1.90;28.30;;;;;;7369376;19;20356;-60
2022/02/26 05:42:54;;;;;;;18.60;8.50;;;1.90;28.30;;;;;;7365891;19;20020;-59
2022/02/26 05:45:24;;;;;;;17.17;8.30;;;1.90;27.80;;;;;;7385115;19;20085;-59
2022/02/26 05:47:54;;;;;;;20.17;8.98;;;1.90;28.40;;;;;;7367126;19;20027;-59
2022/02/26 05:50:24;;;;;;;17.88;9.13;;;1.90;28.30;;;;;;7365209;19;20067;-59
2022/02/26 05:52:54;;;;;;;21.88;9.48;;;1.80;28.10;;;;;;7363872;19;20077;-60
2022/02/26 05:55:27;;;;;;;21.17;9.05;;;1.80;28.20;;;;;;7363910;19;20462;-59
2022/02/26 05:57:57;;;;;;;19.13;9.05;;;1.80;28.40;;;;;;7366746;19;20674;-59
2022/02/26 06:00:28;;;;;;;20.33;9.50;;;1.80;28.70;;;;;;7387317;19;20070;-59
2022/02/26 06:02:58;;;;;;;19.05;9.93;;;1.80;28.30;;;;;;7363721;19;20010;-59
2022/02/26 06:05:28;;;;;;;21.75;9.73;;;1.90;28.60;;;;;;7361569;19;20498;-60
2022/02/26 06:07:58;;;;;;;18.83;9.07;;;1.90;28.40;;;;;;7367648;19;20031;-60
2022/02/26 06:10:31;;;;;;;17.52;9.52;;;1.90;28.00;;;;;;7365587;19;20474;-59
2022/02/26 06:13:01;;;;;;;23.05;9.73;;;1.90;28.40;;;;;;7365050;19;20756;-59
2022/02/26 06:15:31;;;;;;;16.63;9.63;;;1.90;28.40;;;;;;7384327;19;20007;-59
2022/02/26 06:18:01;;;;;;;20.58;9.38;;;1.80;28.00;;;;;;7366487;19;20017;-60
2022/02/26 06:20:32;;;;;;;24.40;9.40;;;1.90;28.10;;;;;;7365301;19;20415;-59
2022/02/26 06:23:02;;;;;;;20.15;9.75;;;1.90;28.60;;;;;;7365545;19;20010;-59
2022/02/26 06:25:34;;;;;;;20.65;10.57;;;1.90;28.30;;;;;;7361958;19;20014;-61
2022/02/26 06:28:04;;;;;;;22.27;10.68;;;2.00;27.90;;;;;;7366782;19;20006;-61
2022/02/26 06:30:34;;;;;;;18.17;9.57;;;2.00;27.80;;;;;;7380019;19;20014;-59
2022/02/26 06:33:04;;;;;;;20.83;10.15;;;2.00;27.80;;;;;;7385268;19;20493;-60
2022/02/26 06:35:34;;;;;;;18.23;9.30;;;1.90;27.60;;;;;;7360434;19;20084;-59
2022/02/26 06:38:04;;;;;;;17.13;9.70;;;2.00;27.80;;;;;;7361661;19;20089;-60
2022/02/26 06:40:36;;;;;;;22.40;9.70;;;2.00;27.00;;;;;;7363952;19;20026;-59
2022/02/26 06:43:06;;;;;;;20.10;8.75;;;2.00;27.30;;;;;;7367655;19;20010;-61
2022/02/26 06:45:36;;;;;;;19.85;9.60;;;2.00;27.00;;;;;;7359679;19;20017;-61
2022/02/26 06:48:07;;;;;;;22.42;9.95;;;2.00;26.90;;;;;;7386477;19;20014;-60
2022/02/26 06:50:39;;;;;;;21.67;10.35;;;2.00;27.40;;;;;;7361876;19;20454;-60
2022/02/26 06:53:09;;;;;;;19.98;9.52;;;2.00;27.60;;;;;;7367109;19;20018;-60
2022/02/26 06:55:41;;;;;;;19.38;9.13;;;2.10;27.20;;;;;;7360651;19;20011;-60
2022/02/26 06:58:11;;;;;;;20.67;9.57;;;2.20;27.10;;;;;;7364642;19;20010;-59
2022/02/26 07:00:41;;;;;;;17.52;9.32;;;2.30;26.50;;;;;;7361733;19;20430;-59
2022/02/26 07:03:12;;;;;;;20.38;9.93;;;2.30;26.10;;;;;;7387730;19;20025;-60
2022/02/26 07:05:42;;;;;;;22.10;8.98;;;2.30;25.70;;;;;;7360906;19;20003;-61
2022/02/26 07:08:12;;;;;;;22.17;9.05;;;2.20;25.20;;;;;;7364550;19;20077;-59
2022/02/26 07:10:45;;;;;;;16.85;9.13;;;2.20;25.50;;;;;;7361952;19;20007;-59
2022/02/26 07:13:14;;;;;;;17.77;9.13;;;2.30;26.20;;;;;;7363707;19;20009;-60
2022/02/26 07:15:44;;;;;;;22.77;9.95;;;2.50;26.00;;;;;;7360278;19;21261;-61
2022/02/26 07:18:14;;;;;;;24.80;10.52;;;2.50;24.90;;;;;;7386347;19;20074;-60
2022/02/26 07:20:44;;;;;;;19.48;9.40;;;2.50;23.50;;;;;;7360042;19;20456;-60
2022/02/26 07:23:14;;;;;;;19.15;8.50;;;2.60;24.20;;;;;;7364438;19;20013;-60
2022/02/26 07:25:47;;;;;;;21.20;8.95;;;2.60;23.60;;;;;;7360039;19;20378;-60
2022/02/26 07:28:17;;;;;;;23.58;9.00;;;2.50;21.50;;;;;;7364979;19;20017;-59
2022/02/26 07:30:53;;;;;;;17.65;8.25;;;2.60;23.20;;;;;;7362105;19;20021;-60
2022/02/26 07:33:23;;;;;;;18.45;9.02;;;2.80;22.40;;;;;;7383959;19;20719;-60
2022/02/26 07:35:53;;;;;;;19.50;8.82;;;2.80;21.40;;;;;;7359129;19;20022;-60
2022/02/26 07:38:23;;;;;;;13.73;7.45;;;2.80;21.60;;;;;;7363212;19;20103;-59
2022/02/26 07:40:55;;;;;;;16.95;8.18;;;2.90;21.50;;;;;;7360677;19;20593;-59
2022/02/26 07:43:25;;;;;;;16.67;8.38;;;3.10;20.00;;;;;;7365747;19;20010;-60
2022/02/26 07:45:55;;;;;;;19.42;9.48;;;3.00;19.10;;;;;;7358664;19;20004;-60
2022/02/26 07:48:26;;;;;;;21.08;9.55;;;2.90;18.30;;;;;;7383105;19;20547;-60
2022/02/26 07:50:56;;;;;;;17.95;8.93;;;2.80;20.50;;;;;;7359278;19;20015;-59
2022/02/26 07:53:26;;;;;;;15.18;8.27;;;2.80;20.40;;;;;;7363279;19;20227;-59
2022/02/26 07:55:58;;;;;;;17.67;9.25;;;2.80;19.80;;;;;;7358688;19;20070;-60
2022/02/26 07:58:28;;;;;;;20.88;8.57;;;3.00;20.80;;;;;;7361266;19;20836;-60
2022/02/26 08:00:58;;;;;;;19.38;9.48;;;3.00;20.10;;;;;;7360285;19;20021;-59
2022/02/26 08:03:28;;;;;;;18.80;9.07;;;3.10;19.40;;;;;;7385624;19;20014;-59
2022/02/26 08:05:58;;;;;;;16.13;8.70;;;2.90;19.10;;;;;;7358307;19;20039;-59
2022/02/26 08:08:28;;;;;;;20.98;9.23;;;3.00;18.30;;;;;;7360813;19;20381;-60
2022/02/26 08:11:01;;;;;;;18.80;9.45;;;2.90;19.50;;;;;;7357688;19;20102;-59
2022/02/26 08:13:30;;;;;;;20.70;9.32;;;3.10;18.40;;;;;;7363432;19;20018;-60
2022/02/26 08:16:00;;;;;;;27.92;9.68;;;3.30;18.50;;;;;;7359403;19;20085;-60
2022/02/26 08:18:30;;;;;;;17.10;9.02;;;3.20;18.50;;;;;;7382977;19;20022;-59
2022/02/26 08:21:00;;;;;;;23.58;8.82;;;3.30;16.80;;;;;;7357626;19;20238;-60
2022/02/26 08:23:30;;;;;;;20.00;9.20;;;3.00;17.10;;;;;;7361336;19;20085;-60
2022/02/26 08:26:04;;;;;;;17.13;8.65;;;3.10;17.60;;;;;;7357674;19;20006;-60
2022/02/26 08:28:37;;;;;;;20.77;9.07;;;2.90;17.10;;;;;;7359868;19;20049;-58
2022/02/26 08:31:06;;;;;;;21.77;9.82;;;3.30;17.50;;;;;;7358064;19;20085;-60
2022/02/26 08:33:36;;;;;;;14.50;8.57;;;3.30;16.20;;;;;;7360689;19;20642;-60
2022/02/26 08:36:07;;;;;;;18.38;9.43;;;3.40;14.50;;;;;;7378895;19;20094;-60
2022/02/26 08:38:38;;;;;;;25.13;8.70;;;3.50;14.50;;;;;;7361464;19;20074;-59
2022/02/26 08:41:10;;;;;;;19.92;9.23;;;3.90;14.80;;;;;;7356348;19;20015;-59
2022/02/26 08:43:40;;;;;;;20.98;8.15;;;4.10;12.00;;;;;;7359343;19;20014;-60
2022/02/26 08:46:10;;;;;;;22.90;8.32;;;4.20;8.40;;;;;;7358326;19;20025;-60
2022/02/26 08:48:40;;;;;;;23.25;7.72;;;4.40;8.80;;;;;;7361761;19;20022;-60
2022/02/26 08:51:10;;;;;;;16.85;7.13;;;4.50;7.40;;;;;;7377243;19;20014;-60
2022/02/26 08:53:40;;;;;;;17.05;7.80;;;4.00;9.20;;;;;;7360084;19;20113;-60
2022/02/26 08:56:13;;;;;;;14.32;6.93;;;4.10;8.40;;;;;;7356614;19;20016;-60
2022/02/26 08:58:43;;;;;;;15.85;7.55;;;4.30;6.60;;;;;;7361051;19;20493;-60
2022/02/26 09:01:12;;;;;;;14.60;7.45;;;4.20;7.10;;;;;;7358543;19;20016;-60
2022/02/26 09:03:43;;;;;;;15.85;7.30;;;4.20;6.40;;;;;;7367209;19;20086;-60
2022/02/26 09:06:13;;;;;;;16.10;7.90;;;4.10;7.20;;;;;;7383746;19;20615;-60
2022/02/26 09:08:43;;;;;;;17.80;7.35;;;3.70;8.10;;;;;;7367148;19;20007;-60
2022/02/26 09:11:15;;;;;;;18.27;5.85;;;4.10;8.40;;;;;;7364425;19;20544;-60
2022/02/26 09:13:46;;;;;;;12.15;5.75;;;4.30;3.40;;;;;;7367213;19;20078;-60
2022/02/26 09:16:17;;;;;;;9.77;5.57;;;4.20;1.00;;;;;;7363065;19;20031;-59
2022/02/26 09:18:47;;;;;;;18.13;7.30;;;4.50;1.00;;;;;;7367542;19;20018;-59
2022/02/26 09:21:17;;;;;;;16.75;5.85;;;4.50;1.00;;;;;;7386773;19;20015;-59
2022/02/26 09:23:47;;;;;;;13.55;6.45;;;4.50;1.00;;;;;;7365816;19;20585;-60
2022/02/26 09:26:20;;;;;;;13.45;6.50;;;4.40;1.20;;;;;;7362262;19;20011;-60
2022/02/26 09:28:50;;;;;;;12.80;5.75;;;5.00;1.00;;;;;;7366852;19;20081;-60
2022/02/26 09:31:20;;;;;;;12.90;5.90;;;5.50;1.00;;;;;;7365301;19;20720;-60
2022/02/26 09:33:50;;;;;;;15.93;6.55;;;5.60;1.00;;;;;;7369315;19;20010;-58
2022/02/26 09:36:20;;;;;;;17.92;6.50;;;5.70;1.00;;;;;;7382643;19;20063;-59
2022/02/26 09:38:50;;;;;;;21.05;7.10;;;5.80;1.00;;;;;;7365410;19;20508;-59
2022/02/26 09:41:23;;;;;;;14.20;6.32;;;5.60;1.00;;;;;;7362014;19;20086;-59
2022/02/26 09:43:53;;;;;;;10.82;4.63;;;6.00;1.00;;;;;;7368746;19;20476;-59
2022/02/26 09:46:26;;;;;;;9.18;4.13;;;6.00;1.00;;;;;;7363601;19;20364;-59
2022/02/26 09:48:56;;;;;;;11.68;4.88;;;5.50;1.00;;;;;;7364969;19;20037;-60
2022/02/26 09:51:26;;;;;;;8.57;4.28;;;5.30;1.00;;;;;;7383393;19;20038;-60
2022/02/26 09:53:57;;;;;;;10.10;3.20;;;5.10;1.00;;;;;;7367736;19;20047;-59
2022/02/26 09:56:29;;;;;;;15.88;5.40;;;5.50;1.00;;;;;;7363096;19;20095;-59
2022/02/26 09:58:59;;;;;;;12.45;4.88;;;5.40;1.00;;;;;;7364067;19;20011;-59
2022/02/26 10:01:29;;;;;;;12.70;4.82;;;5.20;1.00;;;;;;7361916;19;20006;-59
2022/02/26 10:04:10;;;;;;;11.57;4.70;;;5.20;1.00;;;;;;7367514;19;20327;-59
2022/02/26 10:06:40;;;;;;;12.98;4.65;;;4.80;1.00;;;;;;7363147;19;20525;-60
2022/02/26 10:09:13;;;;;;;12.23;4.65;;;4.80;1.00;;;;;;7386217;19;20029;-59
2022/02/26 10:11:45;;;;;;;9.82;4.18;;;4.70;1.00;;;;;;7360122;19;20006;-59
2022/02/26 10:14:17;;;;;;;16.20;5.88;;;4.80;1.00;;;;;;7364649;19;20586;-60
2022/02/26 10:16:51;;;;;;;16.67;5.10;;;4.50;1.00;;;;;;7362302;19;20010;-59
2022/02/26 10:19:23;;;;;;;12.75;4.40;;;4.50;1.00;;;;;;7364708;19;20098;-60
2022/02/26 10:21:54;;;;;;;11.15;4.53;;;4.50;1.00;;;;;;7361029;19;20454;-59
2022/02/26 10:24:24;;;;;;;14.70;5.07;;;4.60;1.00;;;;;;7384756;19;20043;-60
2022/02/26 10:27:00;;;;;;;8.40;3.10;;;4.50;1.00;;;;;;7359726;19;20053;-60
2022/02/26 10:29:30;;;;;;;10.23;3.35;;;5.00;1.00;;;;;;7363629;19;20014;-60
2022/02/26 10:32:02;;;;;;;6.57;2.83;;;5.20;1.00;;;;;;7362943;19;20018;-59
2022/02/26 10:34:36;;;;;;;10.90;2.58;;;5.00;1.00;;;;;;7365131;19;20010;-60
2022/02/26 10:37:08;;;;;;;9.48;2.88;;;4.90;1.00;;;;;;7361062;19;20096;-59
2022/02/26 10:39:40;;;;;;;8.32;2.47;;;5.30;1.00;;;;;;7363906;19;20086;-60
2022/02/26 10:42:19;;;;;;;10.00;2.53;;;5.80;1.00;;;;;;7384325;19;20496;-60
2022/02/26 10:45:02;;;;;;;4.55;1.77;;;5.60;1.00;;;;;;7363779;19;20016;-59
2022/02/26 10:47:33;;;;;;;5.53;1.52;;;5.60;1.00;;;;;;7363150;19;20017;-60
2022/02/26 10:50:14;;;;;;;6.80;1.42;;;5.30;1.00;;;;;;7362278;19;20017;-59
2022/02/26 10:52:57;;;;;;;6.47;1.95;;;5.80;1.00;;;;;;7360207;19;20648;-60
2022/02/26 10:55:57;;;;;;;5.60;1.98;;;5.70;1.00;;;;;;7360951;19;20397;-60
2022/02/26 10:58:29;;;;;;;5.80;1.92;;;5.00;1.00;;;;;;7363549;19;20010;-59
2022/02/26 11:01:02;;;;;;;11.65;2.13;;;5.40;1.00;;;;;;7359856;19;20123;-59
2022/02/26 11:03:32;;;;;;;6.90;2.53;;;5.50;1.00;;;;;;7384521;19;20085;-60
2022/02/26 11:06:03;;;;;;;10.73;2.90;;;5.60;1.00;;;;;;7358706;19;20286;-60
2022/02/26 11:08:34;;;;;;;8.98;2.70;;;5.50;1.00;;;;;;7363988;19;20024;-61
2022/02/26 11:11:08;;;;;;;5.35;2.28;;;5.60;1.00;;;;;;7360603;19;20730;-61
2022/02/26 11:13:40;;;;;;;7.30;2.20;;;5.70;1.00;;;;;;7364519;19;20018;-60
2022/02/26 11:16:11;;;;;;;8.13;2.30;;;5.30;1.00;;;;;;7359227;19;20110;-59
2022/02/26 11:18:42;;;;;;;5.25;2.45;;;5.30;1.00;;;;;;7362349;19;20018;-60
2022/02/26 11:21:14;;;;;;;18.02;4.32;;;5.40;1.00;;;;;;7381124;19;20014;-61
2022/02/26 11:23:47;;;;;;;;;;;5.30;1.00;;;;;;7364628;19;20042;-59
2022/02/26 11:26:22;;;;;;;14.23;3.50;;;5.10;1.00;;;;;;7358691;19;19993;-59
2022/02/26 11:28:58;;;;;;;8.48;2.30;;;5.30;1.00;;;;;;7362340;19;20073;-59
2022/02/26 11:31:34;;;;;;;9.05;2.00;;;5.40;1.00;;;;;;7359641;19;20006;-60
2022/02/26 11:34:04;;;;;;;7.93;1.88;;;5.40;1.00;;;;;;7364269;19;20010;-61
2022/02/26 11:36:57;;;;;;;7.60;2.05;;;5.70;1.00;;;;;;7369356;19;20014;-62
2022/02/26 11:39:30;;;;;;;7.22;2.25;;;5.90;1.00;;;;;;7381563;19;20014;-60
2022/02/26 11:42:31;;;;;;;10.52;2.67;;;5.80;1.00;;;;;;7359300;19;20439;-60
2022/02/26 11:45:10;;;;;;;10.40;2.45;;;6.20;1.00;;;;;;7358260;19;20074;-60
2022/02/26 11:47:51;;;;;;;13.32;2.70;;;6.10;1.00;;;;;;7360521;19;20438;-60
2022/02/26 11:50:25;;;;;;;8.50;2.20;;;6.30;1.00;;;;;;7363219;19;20098;-60
2022/02/26 11:52:58;;;;;;;8.82;2.60;;;6.20;1.00;;;;;;7361066;19;20070;-60
2022/02/26 11:55:38;;;;;;;5.57;2.10;;;6.30;1.00;;;;;;7358097;19;20011;-59
2022/02/26 11:58:11;;;;;;;9.65;2.70;;;6.20;1.00;;;;;;7360340;19;20011;-60
2022/02/26 12:00:51;;;;;;;11.95;2.45;;;6.60;1.00;;;;;;7358195;19;20014;-61
2022/02/26 12:03:34;;;;;;;10.68;3.10;;;6.50;1.00;;;;;;7385097;19;20014;-60
2022/02/26 12:06:33;;;;;;;5.30;2.42;;;6.70;1.00;;;;;;7360010;19;20010;-60
2022/02/26 12:09:13;;;;;;;6.78;2.30;;;6.90;1.00;;;;;;7362279;19;20405;-61
2022/02/26 12:11:51;;;;;;;7.10;2.17;;;7.40;1.00;;;;;;7357285;19;20010;-61
2022/02/26 12:14:30;;;;;;;10.55;2.58;;;7.30;1.00;;;;;;7361147;19;20848;-60
2022/02/26 12:17:08;;;;;;;8.60;2.75;;;7.20;1.00;;;;;;7355618;19;20118;-60
2022/02/26 12:19:47;;;;;;;9.05;2.67;;;6.90;1.00;;;;;;7362578;19;20018;-59
2022/02/26 12:22:17;;;;;;;9.07;2.78;;;6.80;1.00;;;;;;7357863;19;20812;-60
2022/02/26 12:24:50;;;;;;;6.95;2.90;;;6.30;1.00;;;;;;7359387;19;20490;-60
2022/02/26 12:27:33;;;;;;;8.82;2.35;;;6.40;1.00;;;;;;7380005;19;20478;-60
2022/02/26 12:30:10;;;;;;;10.15;2.33;;;6.10;1.00;;;;;;7360132;19;20015;-61
2022/02/26 12:32:59;;;;;;;9.25;2.75;;;6.20;1.00;;;;;;7359705;19;20014;-59
2022/02/26 12:35:34;;;;;;;13.25;2.70;;;6.10;1.00;;;;;;7358008;19;20011;-60
2022/02/26 12:38:21;;;;;;;7.50;2.65;;;6.20;1.00;;;;;;7367810;19;20035;-60
2022/02/26 12:40:51;;;;;;;13.80;3.28;;;6.10;1.00;;;;;;7364520;19;20015;-60
2022/02/26 12:43:29;;;;;;;9.10;2.22;;;6.30;1.00;;;;;;7368644;19;20518;-60
2022/02/26 12:45:59;;;;;;;9.65;1.98;;;6.30;1.00;;;;;;7363409;19;20010;-59
2022/02/26 12:48:33;;;;;;;11.93;2.58;;;6.00;1.00;;;;;;7390288;19;20006;-59
2022/02/26 12:51:06;;;;;;;11.38;3.33;;;5.90;1.00;;;;;;7366411;19;20027;-59
2022/02/26 12:53:37;;;;;;;5.85;2.55;;;5.90;1.00;;;;;;7366234;19;20353;-59
2022/02/26 12:56:09;;;;;;;9.02;2.67;;;5.70;1.00;;;;;;7362189;19;20014;-60
2022/02/26 12:58:40;;;;;;;11.23;2.55;;;5.70;1.00;;;;;;7366792;19;20023;-59
2022/02/26 13:01:14;;;;;;;11.05;2.90;;;5.90;1.00;;;;;;7367070;19;20014;-59
2022/02/26 13:03:50;;;;;;;6.97;1.90;;;6.50;1.00;;;;;;7369794;19;20029;-59
2022/02/26 13:06:20;;;;;;;7.93;2.63;;;6.40;1.00;;;;;;7382368;19;20014;-60
2022/02/26 13:08:52;;;;;;;6.72;2.08;;;6.40;1.00;;;;;;7365697;19;20058;-60
2022/02/26 13:11:23;;;;;;;9.20;2.72;;;6.20;1.00;;;;;;7365309;19;20011;-61
2022/02/26 13:14:06;;;;;;;4.78;2.00;;;5.90;1.00;;;;;;7369167;19;20006;-59
2022/02/26 13:16:36;;;;;;;8.77;2.78;;;6.20;1.00;;;;;;7362853;19;20006;-60
2022/02/26 13:19:09;;;;;;;11.45;2.13;;;6.00;1.00;;;;;;7366268;19;20640;-59
2022/02/26 13:21:40;;;;;;;8.55;2.20;;;6.20;1.00;;;;;;7363605;19;20015;-60
2022/02/26 13:24:10;;;;;;;8.23;2.45;;;6.30;1.00;;;;;;7390624;19;20017;-60
2022/02/26 13:26:40;;;;;;;10.20;2.35;;;6.20;1.00;;;;;;7361570;19;20019;-59
2022/02/26 13:29:22;;;;;;;9.32;2.75;;;6.20;1.00;;;;;;7364930;19;20069;-59
2022/02/26 13:31:53;;;;;;;15.25;2.63;;;6.10;1.00;;;;;;7364088;19;20471;-60
2022/02/26 13:34:26;;;;;;;10.30;2.17;;;6.10;1.00;;;;;;7367232;19;20018;-59
2022/02/26 13:36:57;;;;;;;8.27;2.58;;;6.00;1.00;;;;;;7361972;19;20019;-60
2022/02/26 13:39:32;;;;;;;9.00;2.35;;;6.10;1.00;;;;;;7388028;19;20486;-60
2022/02/26 13:42:03;;;;;;;7.10;1.95;;;6.20;1.00;;;;;;7362728;19;20089;-59
2022/02/26 13:44:35;;;;;;;9.10;3.58;;;6.00;1.00;;;;;;7364343;19;20374;-60
2022/02/26 13:47:10;;;;;;;8.43;2.00;;;6.00;1.00;;;;;;7359810;19;20018;-59
2022/02/26 13:49:45;;;;;;;8.57;2.00;;;5.90;1.00;;;;;;7367218;19;20019;-60
2022/02/26 13:52:17;;;;;;;10.68;1.90;;;5.70;1.00;;;;;;7362914;19;20017;-61